createdAt,value
2018-08-12T00:01:04.110Z,0
2018-08-12T00:02:14.312Z,0
2018-08-12T00:03:25.638Z,0
2018-08-12T00:04:35.516Z,0
2018-08-12T00:05:45.183Z,0
2018-08-12T00:06:55.332Z,0
2018-08-12T00:08:05.448Z,0
2018-08-12T00:09:15.574Z,0
2018-08-12T00:10:25.735Z,0
2018-08-12T00:11:35.895Z,0
2018-08-12T00:12:46.052Z,0
2018-08-12T00:13:56.227Z,0
2018-08-12T00:15:06.436Z,0
2018-08-12T00:16:16.302Z,0
2018-08-12T00:17:26.668Z,0
2018-08-12T00:18:37.131Z,0
2018-08-12T00:19:47.238Z,0
2018-08-12T00:20:57.596Z,0
2018-08-12T00:22:07.742Z,0
2018-08-12T00:23:17.925Z,0
2018-08-12T00:24:28.146Z,0
2018-08-12T00:25:38.316Z,0
2018-08-12T00:26:48.449Z,0
2018-08-12T00:27:58.650Z,0
2018-08-12T00:29:09.824Z,0
2018-08-12T00:30:19.971Z,0
2018-08-12T00:31:30.220Z,0
2018-08-12T00:32:40.513Z,0
2018-08-12T00:33:50.710Z,0
2018-08-12T00:35:00.901Z,0
2018-08-12T00:36:11.116Z,0
2018-08-12T00:37:21.244Z,0
2018-08-12T00:38:31.405Z,0
2018-08-12T00:39:41.544Z,0
2018-08-12T00:40:51.751Z,0
2018-08-12T00:42:01.879Z,0
2018-08-12T00:43:11.756Z,0
2018-08-12T00:44:21.927Z,0
2018-08-12T00:45:32.298Z,0
2018-08-12T00:46:42.450Z,0
2018-08-12T00:47:52.601Z,0
2018-08-12T00:49:02.728Z,0
2018-08-12T00:50:12.961Z,0
2018-08-12T00:51:22.594Z,0
2018-08-12T00:52:32.906Z,0
2018-08-12T00:53:43.046Z,0
2018-08-12T00:54:53.252Z,0
2018-08-12T00:56:03.396Z,0
2018-08-12T00:57:13.600Z,0
2018-08-12T00:58:23.833Z,0
2018-08-12T00:59:33.938Z,0
2018-08-12T01:00:44.085Z,0
2018-08-12T01:01:53.946Z,0
2018-08-12T01:03:03.820Z,0
2018-08-12T01:04:13.988Z,0
2018-08-12T01:05:24.109Z,0
2018-08-12T01:06:34.251Z,0
2018-08-12T01:07:44.400Z,0
2018-08-12T01:08:54.560Z,0
2018-08-12T01:10:04.444Z,0
2018-08-12T01:11:14.303Z,0
2018-08-12T01:12:24.434Z,0
2018-08-12T01:13:34.544Z,0
2018-08-12T01:14:44.659Z,0
2018-08-12T01:15:54.443Z,0
2018-08-12T01:17:04.382Z,0
2018-08-12T01:18:14.271Z,0
2018-08-12T01:19:24.490Z,0
2018-08-12T01:20:34.716Z,0
2018-08-12T01:21:44.941Z,0
2018-08-12T01:22:54.544Z,0
2018-08-12T01:24:04.666Z,0
2018-08-12T01:25:14.837Z,0
2018-08-12T01:26:25.185Z,0
2018-08-12T01:27:35.346Z,0
2018-08-12T01:28:45.462Z,0
2018-08-12T01:29:55.625Z,0
2018-08-12T01:31:05.602Z,0
2018-08-12T01:32:15.478Z,0
2018-08-12T01:33:25.644Z,0
2018-08-12T01:34:35.796Z,0
2018-08-12T01:35:46.000Z,0
2018-08-12T01:36:56.165Z,0
2018-08-12T01:38:06.300Z,0
2018-08-12T01:39:16.440Z,0
2018-08-12T01:40:26.582Z,0
2018-08-12T01:41:36.764Z,0
2018-08-12T01:42:46.994Z,0
2018-08-12T01:43:57.398Z,0
2018-08-12T01:45:07.554Z,0
2018-08-12T01:46:17.756Z,0
2018-08-12T01:47:27.989Z,0
2018-08-12T01:48:38.218Z,0
2018-08-12T01:49:48.416Z,0
2018-08-12T01:50:58.589Z,0
2018-08-12T01:52:08.116Z,0
2018-08-12T01:53:17.896Z,0
2018-08-12T01:54:27.774Z,0
2018-08-12T01:55:37.902Z,0
2018-08-12T01:56:48.024Z,0
2018-08-12T01:57:58.030Z,0
2018-08-12T01:59:07.881Z,0
2018-08-12T02:00:18.090Z,0
2018-08-12T02:01:28.219Z,0
2018-08-12T02:02:38.341Z,0
2018-08-12T02:03:48.478Z,0
2018-08-12T02:04:58.611Z,0
2018-08-12T02:06:08.519Z,0
2018-08-12T02:07:18.717Z,0
2018-08-12T02:08:28.840Z,0
2018-08-12T02:09:38.968Z,0
2018-08-12T02:10:49.103Z,0
2018-08-12T02:11:58.810Z,0
2018-08-12T02:13:08.675Z,0
2018-08-12T02:14:18.824Z,0
2018-08-12T02:15:28.946Z,0
2018-08-12T02:16:39.089Z,0
2018-08-12T02:17:49.012Z,0
2018-08-12T02:18:59.157Z,0
2018-08-12T02:20:09.293Z,0
2018-08-12T02:21:19.487Z,0
2018-08-12T02:22:29.659Z,0
2018-08-12T02:23:39.977Z,0
2018-08-12T02:24:50.237Z,0
2018-08-12T02:26:00.466Z,0
2018-08-12T02:27:10.707Z,0
2018-08-12T02:28:20.360Z,0
2018-08-12T02:29:30.581Z,0
2018-08-12T02:30:40.487Z,0
2018-08-12T02:31:50.653Z,0
2018-08-12T02:33:00.824Z,0
2018-08-12T02:34:11.077Z,0
2018-08-12T02:35:21.217Z,0
2018-08-12T02:36:31.347Z,0
2018-08-12T02:37:41.522Z,0
2018-08-12T02:38:51.667Z,0
2018-08-12T02:40:01.826Z,0
2018-08-12T02:41:11.955Z,0
2018-08-12T02:42:22.191Z,0
2018-08-12T02:43:32.315Z,0
2018-08-12T02:44:42.189Z,0
2018-08-12T02:45:52.419Z,0
2018-08-12T02:47:02.546Z,0
2018-08-12T02:48:12.742Z,0
2018-08-12T02:49:22.889Z,0
2018-08-12T02:50:33.129Z,0
2018-08-12T02:51:43.029Z,0
2018-08-12T02:52:53.159Z,0
2018-08-12T02:54:03.294Z,0
2018-08-12T02:55:13.453Z,0
2018-08-12T02:56:23.601Z,0
2018-08-12T02:57:33.840Z,0
2018-08-12T02:58:43.713Z,0
2018-08-12T02:59:53.872Z,0
2018-08-12T03:01:03.762Z,0
2018-08-12T03:02:14.872Z,0
2018-08-12T03:03:24.788Z,0
2018-08-12T03:04:34.926Z,0
2018-08-12T03:05:45.102Z,0
2018-08-12T03:06:54.981Z,0
2018-08-12T03:08:05.117Z,0
2018-08-12T03:09:15.251Z,0
2018-08-12T03:10:25.401Z,0
2018-08-12T03:11:35.579Z,0
2018-08-12T03:12:45.744Z,0
2018-08-12T03:13:55.947Z,0
2018-08-12T03:15:06.319Z,0
2018-08-12T03:16:16.704Z,0
2018-08-12T03:17:26.895Z,0
2018-08-12T03:18:37.080Z,0
2018-08-12T03:19:46.945Z,0
2018-08-12T03:20:57.318Z,0
2018-08-12T03:22:07.479Z,0
2018-08-12T03:23:17.643Z,0
2018-08-12T03:24:27.511Z,0
2018-08-12T03:25:37.744Z,0
2018-08-12T03:26:47.872Z,0
2018-08-12T03:27:58.024Z,0
2018-08-12T03:29:08.144Z,0
2018-08-12T03:30:18.867Z,0
2018-08-12T03:31:29.104Z,0
2018-08-12T03:32:40.223Z,0
2018-08-12T03:33:50.413Z,0
2018-08-12T03:35:00.613Z,0
2018-08-12T03:36:11.726Z,0
2018-08-12T03:37:21.974Z,0
2018-08-12T03:38:32.151Z,0
2018-08-12T03:39:42.306Z,0
2018-08-12T03:40:52.503Z,0
2018-08-12T03:42:02.710Z,0
2018-08-12T03:43:13.090Z,0
2018-08-12T03:44:23.463Z,0
2018-08-12T03:45:33.367Z,0
2018-08-12T03:46:43.490Z,0
2018-08-12T03:47:53.599Z,0
2018-08-12T03:49:03.906Z,5
2018-08-12T03:50:14.023Z,5
2018-08-12T03:51:24.132Z,5
2018-08-12T03:52:34.264Z,5
2018-08-12T03:53:44.414Z,5
2018-08-12T03:54:54.512Z,5
2018-08-12T03:56:04.640Z,5
2018-08-12T03:57:14.785Z,5
2018-08-12T03:58:25.018Z,5
2018-08-12T03:59:35.150Z,10
2018-08-12T04:00:45.315Z,10
2018-08-12T04:01:55.178Z,10
2018-08-12T04:03:05.328Z,10
2018-08-12T04:04:15.528Z,10
2018-08-12T04:05:25.661Z,10
2018-08-12T04:06:35.787Z,10
2018-08-12T04:07:45.920Z,15
2018-08-12T04:08:56.064Z,15
2018-08-12T04:10:06.298Z,15
2018-08-12T04:11:16.638Z,15
2018-08-12T04:12:26.499Z,20
2018-08-12T04:13:36.630Z,20
2018-08-12T04:14:46.547Z,20
2018-08-12T04:15:56.678Z,20
2018-08-12T04:17:06.785Z,20
2018-08-12T04:18:16.926Z,25
2018-08-12T04:19:27.080Z,25
2018-08-12T04:20:37.267Z,25
2018-08-12T04:21:47.456Z,25
2018-08-12T04:22:57.594Z,25
2018-08-12T04:24:07.774Z,25
2018-08-12T04:25:17.898Z,30
2018-08-12T04:26:28.044Z,30
2018-08-12T04:27:38.157Z,30
2018-08-12T04:28:47.749Z,30
2018-08-12T04:29:57.885Z,35
2018-08-12T04:31:07.685Z,35
2018-08-12T04:32:17.920Z,35
2018-08-12T04:33:28.169Z,35
2018-08-12T04:34:38.291Z,40
2018-08-12T04:35:48.429Z,40
2018-08-12T04:36:58.570Z,40
2018-08-12T04:38:08.987Z,40
2018-08-12T04:39:19.352Z,45
2018-08-12T04:40:29.556Z,45
2018-08-12T04:41:40.695Z,45
2018-08-12T04:42:50.821Z,50
2018-08-12T04:44:01.165Z,50
2018-08-12T04:45:11.428Z,50
2018-08-12T04:46:21.786Z,55
2018-08-12T04:47:31.900Z,55
2018-08-12T04:48:42.076Z,55
2018-08-12T04:49:52.281Z,55
2018-08-12T04:51:02.411Z,60
2018-08-12T04:52:12.572Z,60
2018-08-12T04:53:22.729Z,60
2018-08-12T04:54:32.849Z,60
2018-08-12T04:55:42.977Z,60
2018-08-12T04:56:53.169Z,60
2018-08-12T04:58:03.348Z,60
2018-08-12T04:59:13.209Z,60
2018-08-12T05:00:23.351Z,65
2018-08-12T05:01:33.526Z,65
2018-08-12T05:02:43.717Z,60
2018-08-12T05:03:53.957Z,65
2018-08-12T05:05:03.974Z,65
2018-08-12T05:06:14.100Z,65
2018-08-12T05:07:24.269Z,70
2018-08-12T05:08:34.500Z,70
2018-08-12T05:09:44.497Z,70
2018-08-12T05:10:54.852Z,70
2018-08-12T05:12:05.156Z,75
2018-08-12T05:13:15.070Z,75
2018-08-12T05:14:24.921Z,75
2018-08-12T05:15:35.040Z,75
2018-08-12T05:16:45.192Z,80
2018-08-12T05:17:55.325Z,80
2018-08-12T05:19:05.641Z,80
2018-08-12T05:20:15.766Z,80
2018-08-12T05:21:25.844Z,75
2018-08-12T05:22:35.980Z,80
2018-08-12T05:23:46.109Z,80
2018-08-12T05:24:56.245Z,85
2018-08-12T05:26:06.138Z,90
2018-08-12T05:27:16.265Z,90
2018-08-12T05:28:26.387Z,90
2018-08-12T05:29:36.520Z,90
2018-08-12T05:30:46.831Z,90
2018-08-12T05:31:57.024Z,85
2018-08-12T05:33:07.188Z,95
2018-08-12T05:34:17.358Z,95
2018-08-12T05:35:27.535Z,95
2018-08-12T05:36:37.914Z,95
2018-08-12T05:37:47.763Z,95
2018-08-12T05:38:57.888Z,95
2018-08-12T05:40:08.011Z,95
2018-08-12T05:41:18.154Z,95
2018-08-12T05:42:28.031Z,100
2018-08-12T05:43:38.143Z,95
2018-08-12T05:44:47.646Z,100
2018-08-12T05:45:57.885Z,100
2018-08-12T05:47:08.966Z,100
2018-08-12T05:48:19.174Z,100
2018-08-12T05:49:29.333Z,105
2018-08-12T05:50:39.588Z,105
2018-08-12T05:51:49.737Z,105
2018-08-12T05:52:59.870Z,110
2018-08-12T05:54:10.131Z,110
2018-08-12T05:55:20.403Z,105
2018-08-12T05:56:30.692Z,110
2018-08-12T05:57:41.137Z,110
2018-08-12T05:58:51.295Z,110
2018-08-12T06:00:01.430Z,110
2018-08-12T06:01:11.560Z,100
2018-08-12T06:02:21.693Z,110
2018-08-12T06:03:31.571Z,115
2018-08-12T06:04:41.757Z,120
2018-08-12T06:05:51.906Z,120
2018-08-12T06:07:01.805Z,120
2018-08-12T06:08:12.012Z,120
2018-08-12T06:09:22.183Z,125
2018-08-12T06:10:32.306Z,125
2018-08-12T06:11:42.570Z,125
2018-08-12T06:12:52.857Z,125
2018-08-12T06:14:03.041Z,125
2018-08-12T06:15:13.270Z,125
2018-08-12T06:16:23.448Z,130
2018-08-12T06:17:34.307Z,130
2018-08-12T06:18:44.161Z,130
2018-08-12T06:19:54.307Z,130
2018-08-12T06:21:04.477Z,135
2018-08-12T06:22:14.664Z,140
2018-08-12T06:23:24.533Z,140
2018-08-12T06:24:34.414Z,140
2018-08-12T06:25:44.813Z,150
2018-08-12T06:26:55.016Z,155
2018-08-12T06:28:05.213Z,160
2018-08-12T06:29:15.456Z,160
2018-08-12T06:30:25.652Z,170
2018-08-12T06:31:36.103Z,170
2018-08-12T06:32:45.969Z,180
2018-08-12T06:33:56.115Z,185
2018-08-12T06:35:07.225Z,185
2018-08-12T06:36:17.179Z,185
2018-08-12T06:37:27.298Z,190
2018-08-12T06:38:37.692Z,190
2018-08-12T06:39:48.103Z,200
2018-08-12T06:40:57.995Z,200
2018-08-12T06:42:07.914Z,195
2018-08-12T06:43:18.045Z,195
2018-08-12T06:44:28.235Z,190
2018-08-12T06:45:38.513Z,190
2018-08-12T06:46:48.655Z,200
2018-08-12T06:47:58.832Z,205
2018-08-12T06:49:08.954Z,205
2018-08-12T06:50:19.103Z,205
2018-08-12T06:51:29.237Z,205
2018-08-12T06:52:39.429Z,195
2018-08-12T06:53:49.650Z,185
2018-08-12T06:54:59.785Z,195
2018-08-12T06:56:11.178Z,185
2018-08-12T06:57:21.299Z,185
2018-08-12T06:58:31.509Z,190
2018-08-12T06:59:41.715Z,185
2018-08-12T07:00:51.922Z,190
2018-08-12T07:02:02.074Z,200
2018-08-12T07:03:12.211Z,210
2018-08-12T07:04:22.407Z,220
2018-08-12T07:05:32.578Z,220
2018-08-12T07:06:42.691Z,225
2018-08-12T07:07:53.864Z,225
2018-08-12T07:09:04.009Z,225
2018-08-12T07:10:14.179Z,230
2018-08-12T07:11:24.375Z,235
2018-08-12T07:12:34.846Z,245
2018-08-12T07:13:45.002Z,250
2018-08-12T07:14:55.129Z,250
2018-08-12T07:16:05.279Z,260
2018-08-12T07:17:15.557Z,260
2018-08-12T07:18:25.737Z,260
2018-08-12T07:19:35.928Z,260
2018-08-12T07:20:46.078Z,260
2018-08-12T07:21:56.066Z,260
2018-08-12T07:23:06.234Z,260
2018-08-12T07:24:16.362Z,265
2018-08-12T07:25:26.546Z,260
2018-08-12T07:26:36.756Z,265
2018-08-12T07:27:47.052Z,275
2018-08-12T07:28:57.242Z,285
2018-08-12T07:30:07.548Z,285
2018-08-12T07:31:17.728Z,300
2018-08-12T07:32:27.076Z,300
2018-08-12T07:33:37.228Z,305
2018-08-12T07:34:47.098Z,305
2018-08-12T07:35:57.236Z,310
2018-08-12T07:37:07.409Z,305
2018-08-12T07:38:17.289Z,310
2018-08-12T07:39:26.923Z,310
2018-08-12T07:40:36.908Z,310
2018-08-12T07:41:47.047Z,315
2018-08-12T07:42:58.193Z,315
2018-08-12T07:44:08.365Z,310
2018-08-12T07:45:18.483Z,315
2018-08-12T07:46:28.679Z,315
2018-08-12T07:47:38.599Z,305
2018-08-12T07:48:48.857Z,300
2018-08-12T07:49:59.072Z,295
2018-08-12T07:51:09.204Z,295
2018-08-12T07:52:19.355Z,285
2018-08-12T07:53:29.516Z,285
2018-08-12T07:54:39.670Z,275
2018-08-12T07:55:50.113Z,280
2018-08-12T07:56:59.997Z,295
2018-08-12T07:58:09.957Z,310
2018-08-12T07:59:20.161Z,310
2018-08-12T08:00:30.296Z,320
2018-08-12T08:01:40.464Z,325
2018-08-12T08:02:50.671Z,325
2018-08-12T08:04:00.900Z,325
2018-08-12T08:05:11.219Z,315
2018-08-12T08:06:21.912Z,325
2018-08-12T08:07:31.695Z,325
2018-08-12T08:08:41.999Z,320
2018-08-12T08:09:52.154Z,330
2018-08-12T08:11:02.314Z,345
2018-08-12T08:12:12.090Z,335
2018-08-12T08:13:22.302Z,340
2018-08-12T08:14:32.487Z,345
2018-08-12T08:15:42.648Z,335
2018-08-12T08:16:52.796Z,340
2018-08-12T08:18:03.032Z,345
2018-08-12T08:19:14.594Z,345
2018-08-12T08:20:24.500Z,360
2018-08-12T08:21:34.796Z,370
2018-08-12T08:22:44.936Z,380
2018-08-12T08:23:55.082Z,395
2018-08-12T08:25:05.217Z,400
2018-08-12T08:26:15.390Z,420
2018-08-12T08:27:25.600Z,435
2018-08-12T08:28:35.776Z,460
2018-08-12T08:29:45.916Z,470
2018-08-12T08:30:56.086Z,485
2018-08-12T08:32:07.485Z,495
2018-08-12T08:33:17.377Z,505
2018-08-12T08:34:27.520Z,515
2018-08-12T08:35:37.668Z,510
2018-08-12T08:36:47.813Z,500
2018-08-12T08:37:58.072Z,530
2018-08-12T08:39:08.261Z,535
2018-08-12T08:40:18.427Z,485
2018-08-12T08:41:28.641Z,525
2018-08-12T08:42:38.895Z,760
2018-08-12T08:43:48.717Z,1175
2018-08-12T08:44:58.875Z,1195
2018-08-12T08:46:09.040Z,1250
2018-08-12T08:47:19.257Z,1225
2018-08-12T08:48:29.562Z,1110
2018-08-12T08:49:39.765Z,1135
2018-08-12T08:50:50.421Z,1090
2018-08-12T08:52:00.712Z,1080
2018-08-12T08:53:10.892Z,1465
2018-08-12T08:54:21.075Z,1840
2018-08-12T08:55:31.263Z,1850
2018-08-12T08:56:41.463Z,1860
2018-08-12T08:57:51.654Z,2040
2018-08-12T08:59:01.826Z,1950
2018-08-12T09:00:11.745Z,1900
2018-08-12T09:01:22.165Z,1990
2018-08-12T09:02:32.454Z,1815
2018-08-12T09:03:42.641Z,1745
2018-08-12T09:04:52.877Z,1525
2018-08-12T09:06:03.076Z,1225
2018-08-12T09:07:13.249Z,940
2018-08-12T09:08:24.262Z,1110
2018-08-12T09:09:34.730Z,1150
2018-08-12T09:10:44.649Z,1230
2018-08-12T09:11:54.822Z,1320
2018-08-12T09:13:05.090Z,1885
2018-08-12T09:14:15.002Z,1860
2018-08-12T09:15:25.156Z,1815
2018-08-12T09:16:35.323Z,1725
2018-08-12T09:17:45.513Z,1625
2018-08-12T09:18:55.684Z,1540
2018-08-12T09:20:05.587Z,1610
2018-08-12T09:21:15.795Z,1915
2018-08-12T09:22:25.949Z,1915
2018-08-12T09:23:35.931Z,1725
2018-08-12T09:24:46.130Z,1860
2018-08-12T09:25:56.433Z,1915
2018-08-12T09:27:06.685Z,1935
2018-08-12T09:28:16.942Z,1985
2018-08-12T09:29:27.117Z,1995
2018-08-12T09:30:37.121Z,2035
2018-08-12T09:31:47.343Z,2010
2018-08-12T09:32:57.505Z,2010
2018-08-12T09:34:07.685Z,1935
2018-08-12T09:35:17.871Z,2020
2018-08-12T09:36:28.142Z,2050
2018-08-12T09:37:38.339Z,2050
2018-08-12T09:38:48.251Z,2125
2018-08-12T09:39:58.686Z,2095
2018-08-12T09:41:09.953Z,2085
2018-08-12T09:42:20.207Z,2135
2018-08-12T09:43:30.436Z,2090
2018-08-12T09:44:40.634Z,2055
2018-08-12T09:45:50.816Z,2030
2018-08-12T09:47:01.144Z,1930
2018-08-12T09:48:11.346Z,2120
2018-08-12T09:49:21.605Z,2185
2018-08-12T09:50:31.424Z,2110
2018-08-12T09:51:42.382Z,2225
2018-08-12T09:52:52.865Z,2205
2018-08-12T09:54:03.029Z,2230
2018-08-12T09:55:13.246Z,2100
2018-08-12T09:56:23.452Z,2200
2018-08-12T09:57:33.723Z,2195
2018-08-12T09:58:44.070Z,2145
2018-08-12T09:59:54.375Z,2150
2018-08-12T10:01:04.830Z,2065
2018-08-12T10:02:15.016Z,2105
2018-08-12T10:03:25.242Z,2165
2018-08-12T10:04:35.401Z,2225
2018-08-12T10:05:45.617Z,2380
2018-08-12T10:06:55.816Z,2465
2018-08-12T10:08:06.007Z,2120
2018-08-12T10:09:15.955Z,2155
2018-08-12T10:10:26.138Z,2235
2018-08-12T10:11:36.366Z,2260
2018-08-12T10:12:46.300Z,2270
2018-08-12T10:13:56.604Z,2290
2018-08-12T10:15:06.875Z,2340
2018-08-12T10:16:17.090Z,2390
2018-08-12T10:17:27.443Z,2500
2018-08-12T10:18:37.614Z,2495
2018-08-12T10:19:47.831Z,2525
2018-08-12T10:20:58.060Z,2535
2018-08-12T10:22:09.238Z,2520
2018-08-12T10:23:19.177Z,2285
2018-08-12T10:24:29.373Z,2290
2018-08-12T10:25:39.550Z,2395
2018-08-12T10:26:49.727Z,2475
2018-08-12T10:27:59.992Z,2500
2018-08-12T10:29:10.338Z,2230
2018-08-12T10:30:20.692Z,2410
2018-08-12T10:31:30.892Z,2565
2018-08-12T10:32:41.078Z,2650
2018-08-12T10:33:51.353Z,2540
2018-08-12T10:35:01.607Z,2525
2018-08-12T10:36:11.886Z,2510
2018-08-12T10:37:22.074Z,2565
2018-08-12T10:38:33.262Z,2600
2018-08-12T10:39:43.426Z,2650
2018-08-12T10:40:54.708Z,2575
2018-08-12T10:42:04.901Z,2480
2018-08-12T10:43:15.134Z,2230
2018-08-12T10:44:25.385Z,1500
2018-08-12T10:45:35.737Z,2530
2018-08-12T10:46:45.786Z,2540
2018-08-12T10:47:55.762Z,2550
2018-08-12T10:49:05.987Z,2610
2018-08-12T10:50:16.202Z,2665
2018-08-12T10:51:25.913Z,2820
2018-08-12T10:52:36.081Z,2920
2018-08-12T10:53:46.276Z,2730
2018-08-12T10:54:56.535Z,2545
2018-08-12T10:56:06.718Z,2715
2018-08-12T10:57:16.922Z,2530
2018-08-12T10:58:27.144Z,2355
2018-08-12T10:59:37.705Z,2250
2018-08-12T11:00:47.937Z,2270
2018-08-12T11:01:58.136Z,1980
2018-08-12T11:03:08.045Z,2135
2018-08-12T11:04:18.223Z,2165
2018-08-12T11:05:28.443Z,2260
2018-08-12T11:06:38.693Z,2760
2018-08-12T11:07:52.488Z,2805
2018-08-12T11:09:05.416Z,2715
2018-08-12T11:10:16.801Z,2645
2018-08-12T11:11:28.689Z,2635
2018-08-12T11:12:39.227Z,2665
2018-08-12T11:13:49.464Z,2575
2018-08-12T11:15:00.023Z,2605
2018-08-12T11:16:10.262Z,2490
2018-08-12T11:17:20.480Z,2590
2018-08-12T11:18:30.701Z,2525
2018-08-12T11:19:40.935Z,2510
2018-08-12T11:20:51.146Z,2525
2018-08-12T11:22:01.323Z,2550
2018-08-12T11:23:11.525Z,2550
2018-08-12T11:24:21.799Z,2575
2018-08-12T11:25:32.021Z,2585
2018-08-12T11:26:42.231Z,2570
2018-08-12T11:27:52.420Z,2540
2018-08-12T11:29:02.503Z,2490
2018-08-12T11:30:12.794Z,2495
2018-08-12T11:31:22.836Z,2390
2018-08-12T11:32:33.019Z,2390
2018-08-12T11:33:43.352Z,2490
2018-08-12T11:34:53.938Z,2490
2018-08-12T11:36:03.935Z,2665
2018-08-12T11:37:15.122Z,2710
2018-08-12T11:38:25.368Z,2690
2018-08-12T11:39:37.043Z,2570
2018-08-12T11:40:48.298Z,2635
2018-08-12T11:41:58.513Z,2645
2018-08-12T11:43:09.694Z,2590
2018-08-12T11:44:19.934Z,2620
2018-08-12T11:45:30.140Z,2635
2018-08-12T11:46:40.380Z,2650
2018-08-12T11:47:51.542Z,2660
2018-08-12T11:49:01.750Z,2650
2018-08-12T11:50:12.147Z,2660
2018-08-12T11:51:22.342Z,2685
2018-08-12T11:52:32.545Z,2730
2018-08-12T11:53:44.055Z,2730
2018-08-12T11:54:54.342Z,2745
2018-08-12T11:56:04.575Z,2705
2018-08-12T11:57:14.950Z,2675
2018-08-12T11:58:25.119Z,2750
2018-08-12T11:59:35.344Z,2830
2018-08-12T12:00:45.614Z,2810
2018-08-12T12:01:55.860Z,2755
2018-08-12T12:03:06.318Z,2695
2018-08-12T12:04:16.612Z,2640
2018-08-12T12:05:27.318Z,2775
2018-08-12T12:06:37.555Z,2920
2018-08-12T12:07:47.795Z,2840
2018-08-12T12:08:58.020Z,2800
2018-08-12T12:10:08.313Z,2770
2018-08-12T12:11:18.369Z,2675
2018-08-12T12:12:28.635Z,2660
2018-08-12T12:13:39.017Z,2655
2018-08-12T12:14:49.255Z,2625
2018-08-12T12:15:59.427Z,2585
2018-08-12T12:17:09.637Z,2545
2018-08-12T12:18:19.634Z,2535
2018-08-12T12:19:30.006Z,2500
2018-08-12T12:20:40.553Z,2475
2018-08-12T12:21:50.892Z,2490
2018-08-12T12:23:01.135Z,2445
2018-08-12T12:24:11.433Z,2480
2018-08-12T12:25:21.699Z,2490
2018-08-12T12:26:31.622Z,2520
2018-08-12T12:27:41.874Z,2475
2018-08-12T12:28:51.822Z,2470
2018-08-12T12:30:02.068Z,2445
2018-08-12T12:31:12.271Z,2415
2018-08-12T12:32:22.528Z,2420
2018-08-12T12:33:32.778Z,2440
2018-08-12T12:34:43.055Z,2435
2018-08-12T12:35:53.356Z,2545
2018-08-12T12:37:03.698Z,2640
2018-08-12T12:38:15.919Z,2645
2018-08-12T12:39:26.173Z,2610
2018-08-12T12:40:36.431Z,2495
2018-08-12T12:41:46.441Z,2475
2018-08-12T12:42:56.791Z,2475
2018-08-12T12:44:07.088Z,2530
2018-08-12T12:45:17.326Z,2535
2018-08-12T12:46:27.579Z,2510
2018-08-12T12:47:37.848Z,2480
2018-08-12T12:48:48.102Z,2625
2018-08-12T12:49:58.377Z,2670
2018-08-12T12:51:08.649Z,2560
2018-08-12T12:52:18.897Z,2560
2018-08-12T12:53:29.270Z,2435
2018-08-12T12:54:39.588Z,2440
2018-08-12T12:55:50.087Z,2335
2018-08-12T12:57:00.343Z,2375
2018-08-12T12:58:10.960Z,2410
2018-08-12T12:59:21.380Z,2395
2018-08-12T13:00:32.725Z,2360
2018-08-12T13:01:43.763Z,2300
2018-08-12T13:02:56.437Z,2385
2018-08-12T13:04:07.971Z,2420
2018-08-12T13:05:18.139Z,2335
2018-08-12T13:06:28.359Z,2280
2018-08-12T13:07:38.553Z,2015
2018-08-12T13:08:48.809Z,2020
2018-08-12T13:09:59.162Z,2035
2018-08-12T13:11:09.431Z,2145
2018-08-12T13:12:19.628Z,2220
2018-08-12T13:13:29.887Z,2140
2018-08-12T13:14:40.095Z,2060
2018-08-12T13:15:50.587Z,1805
2018-08-12T13:17:00.829Z,1890
2018-08-12T13:18:11.216Z,1860
2018-08-12T13:19:21.454Z,1870
2018-08-12T13:20:31.788Z,1875
2018-08-12T13:21:42.129Z,1415
2018-08-12T13:22:52.410Z,915
2018-08-12T13:24:02.717Z,2140
2018-08-12T13:25:13.394Z,2115
2018-08-12T13:26:23.786Z,2175
2018-08-12T13:27:34.063Z,2275
2018-08-12T13:28:44.369Z,2230
2018-08-12T13:29:54.656Z,2045
2018-08-12T13:31:04.990Z,2000
2018-08-12T13:32:15.287Z,2050
2018-08-12T13:33:25.622Z,1960
2018-08-12T13:34:35.892Z,1930
2018-08-12T13:35:46.202Z,1945
2018-08-12T13:36:56.513Z,1905
2018-08-12T13:38:06.806Z,1905
2018-08-12T13:39:17.091Z,1955
2018-08-12T13:40:27.402Z,1950
2018-08-12T13:41:37.692Z,1855
2018-08-12T13:42:48.028Z,1805
2018-08-12T13:43:58.365Z,1865
2018-08-12T13:45:09.650Z,1840
2018-08-12T13:46:19.939Z,1820
2018-08-12T13:47:30.364Z,1920
2018-08-12T13:48:40.677Z,1870
2018-08-12T13:49:51.146Z,1755
2018-08-12T13:51:01.496Z,1875
2018-08-12T13:52:11.801Z,1825
2018-08-12T13:53:22.743Z,1870
2018-08-12T13:54:33.036Z,1740
2018-08-12T13:55:43.286Z,1520
2018-08-12T13:56:53.553Z,1530
2018-08-12T13:58:03.762Z,1390
2018-08-12T13:59:13.989Z,1630
2018-08-12T14:00:24.235Z,1750
2018-08-12T14:01:34.555Z,1695
2018-08-12T14:02:44.975Z,1665
2018-08-12T14:03:54.966Z,1530
2018-08-12T14:05:05.270Z,1570
2018-08-12T14:06:15.480Z,1575
2018-08-12T14:07:25.751Z,1290
2018-08-12T14:08:35.995Z,1540
2018-08-12T14:09:46.550Z,1645
2018-08-12T14:10:57.044Z,1665
2018-08-12T14:12:07.414Z,1675
2018-08-12T14:13:17.682Z,1685
2018-08-12T14:14:27.925Z,1730
2018-08-12T14:15:38.077Z,1720
2018-08-12T14:16:48.099Z,1635
2018-08-12T14:17:58.356Z,1675
2018-08-12T14:19:08.653Z,1570
2018-08-12T14:20:19.042Z,1590
2018-08-12T14:21:29.746Z,1330
2018-08-12T14:22:40.278Z,1265
2018-08-12T14:23:51.520Z,1275
2018-08-12T14:25:01.760Z,1190
2018-08-12T14:26:11.974Z,1245
2018-08-12T14:27:22.239Z,1295
2018-08-12T14:28:32.936Z,1450
2018-08-12T14:29:43.192Z,1490
2018-08-12T14:30:53.473Z,1490
2018-08-12T14:32:03.782Z,1285
2018-08-12T14:33:14.113Z,1165
2018-08-12T14:34:24.372Z,1150
2018-08-12T14:35:34.653Z,1435
2018-08-12T14:36:45.361Z,1345
2018-08-12T14:37:55.852Z,1525
2018-08-12T14:39:06.373Z,1465
2018-08-12T14:40:16.711Z,1420
2018-08-12T14:41:26.678Z,1460
2018-08-12T14:42:37.000Z,1395
2018-08-12T14:43:47.876Z,1505
2018-08-12T14:44:58.102Z,1535
2018-08-12T14:46:08.344Z,1500
2018-08-12T14:47:18.308Z,1555
2018-08-12T14:48:28.655Z,1580
2018-08-12T14:49:39.601Z,1530
2018-08-12T14:50:49.829Z,1415
2018-08-12T14:52:00.044Z,1455
2018-08-12T14:53:10.239Z,1495
2018-08-12T14:54:20.431Z,1325
2018-08-12T14:55:30.687Z,1390
2018-08-12T14:56:40.900Z,1395
2018-08-12T14:57:51.588Z,1385
2018-08-12T14:59:02.038Z,1365
2018-08-12T15:00:12.281Z,1410
2018-08-12T15:01:22.525Z,1185
2018-08-12T15:02:32.711Z,810
2018-08-12T15:03:42.946Z,785
2018-08-12T15:04:53.166Z,830
2018-08-12T15:06:03.459Z,855
2018-08-12T15:07:13.715Z,455
2018-08-12T15:08:24.017Z,470
2018-08-12T15:09:34.287Z,925
2018-08-12T15:10:44.524Z,1065
2018-08-12T15:11:54.799Z,1060
2018-08-12T15:13:04.993Z,810
2018-08-12T15:14:15.246Z,515
2018-08-12T15:15:26.048Z,415
2018-08-12T15:16:36.414Z,370
2018-08-12T15:17:46.758Z,405
2018-08-12T15:18:57.095Z,775
2018-08-12T15:20:07.325Z,690
2018-08-12T15:21:17.624Z,955
2018-08-12T15:22:27.860Z,595
2018-08-12T15:23:38.240Z,540
2018-08-12T15:24:48.516Z,815
2018-08-12T15:25:58.755Z,860
2018-08-12T15:27:09.036Z,975
2018-08-12T15:28:19.295Z,1005
2018-08-12T15:29:29.935Z,1080
2018-08-12T15:30:39.987Z,1085
2018-08-12T15:31:50.247Z,1175
2018-08-12T15:33:01.472Z,1100
2018-08-12T15:34:11.672Z,1095
2018-08-12T15:35:21.930Z,960
2018-08-12T15:36:32.333Z,910
2018-08-12T15:37:42.605Z,740
2018-08-12T15:38:52.886Z,610
2018-08-12T15:40:03.298Z,445
2018-08-12T15:41:13.241Z,360
2018-08-12T15:42:24.082Z,330
2018-08-12T15:43:34.305Z,315
2018-08-12T15:44:44.577Z,305
2018-08-12T15:45:54.806Z,290
2018-08-12T15:47:05.022Z,285
2018-08-12T15:48:15.329Z,280
2018-08-12T15:49:25.603Z,270
2018-08-12T15:50:35.791Z,265
2018-08-12T15:51:46.012Z,255
2018-08-12T15:52:56.444Z,250
2018-08-12T15:54:06.707Z,250
2018-08-12T15:55:16.744Z,250
2018-08-12T15:56:26.932Z,245
2018-08-12T15:57:37.111Z,245
2018-08-12T15:58:47.378Z,245
2018-08-12T15:59:57.618Z,235
2018-08-12T16:01:07.602Z,235
2018-08-12T16:02:17.856Z,225
2018-08-12T16:03:28.068Z,225
2018-08-12T16:04:38.340Z,225
2018-08-12T16:05:48.275Z,225
2018-08-12T16:06:58.509Z,225
2018-08-12T16:08:08.930Z,215
2018-08-12T16:09:19.225Z,210
2018-08-12T16:10:29.611Z,210
2018-08-12T16:11:39.819Z,210
2018-08-12T16:12:50.070Z,210
2018-08-12T16:14:00.325Z,205